Time;durP1;ratioP1;P1;durP2;ratioP2;P2;SDS_P1;SDS_P2;PMS_P1;PMS_P2;Temp;Humidity;BMP_temperature;BMP_pressure;BME280_temperature;BME280_humidity;BME280_pressure;Samples;Min_cycle;Max_cycle;Signal;HPM_P1;HPM_P2
2022/12/02 00:02:18;;;;;;;17.27;10.70;;;3.00;82.60;;;;;;5075278;28;20231;-76
2022/12/02 00:04:45;;;;;;;18.93;10.33;;;3.00;67.10;;;;;;5075252;28;20190;-76
2022/12/02 00:07:19;;;;;;;18.57;11.37;;;3.00;37.40;;;;;;5075135;28;20195;-80
2022/12/02 00:09:47;;;;;;;17.63;9.87;;;3.00;34.10;;;;;;5075065;28;20194;-76
2022/12/02 00:12:19;;;;;;;17.47;10.83;;;3.10;9.30;;;;;;5075136;28;20283;-76
2022/12/02 00:14:48;;;;;;;18.27;10.60;;;3.10;1.00;;;;;;5074916;28;20208;-76
2022/12/02 00:17:15;;;;;;;19.63;11.73;;;3.10;1.00;;;;;;5074993;28;20203;-80
2022/12/02 00:19:42;;;;;;;19.87;11.37;;;3.10;1.00;;;;;;5085805;28;20195;-76
2022/12/02 00:22:09;;;;;;;18.00;11.17;;;3.10;1.00;;;;;;5090621;28;20297;-77
2022/12/02 00:24:38;;;;;;;19.37;11.30;;;3.10;1.00;;;;;;5077127;28;20189;-77
2022/12/02 00:27:05;;;;;;;18.20;11.33;;;3.10;1.00;;;;;;5077711;28;20196;-79
2022/12/02 00:29:32;;;;;;;17.53;11.10;;;3.10;1.00;;;;;;5074820;28;20194;-75
2022/12/02 00:31:59;;;;;;;18.63;10.87;;;3.10;1.00;;;;;;5074638;28;20719;-77
2022/12/02 00:34:26;;;;;;;18.80;11.37;;;3.10;1.00;;;;;;5074681;28;20219;-78
2022/12/02 00:36:53;;;;;;;22.87;12.67;;;3.10;1.00;;;;;;5084493;28;20193;-78
2022/12/02 00:39:20;;;;;;;21.60;12.17;;;3.10;1.00;;;;;;5078709;28;20244;-75
2022/12/02 00:41:48;;;;;;;19.13;12.33;;;3.10;1.00;;;;;;5078646;28;20191;-77
2022/12/02 00:46:59;;;;;;;22.77;13.20;;;3.10;1.00;;;;;;5090203;28;20225;-75
2022/12/02 00:49:26;;;;;;;22.20;13.33;;;3.10;1.00;;;;;;5079177;28;20198;-75
2022/12/02 00:51:53;;;;;;;23.47;13.53;;;3.10;1.00;;;;;;5074086;28;20681;-77
2022/12/02 00:54:20;;;;;;;21.73;12.50;;;3.10;1.00;;;;;;5088295;28;20546;-76
2022/12/02 00:56:48;;;;;;;22.53;13.87;;;3.10;1.00;;;;;;5074431;28;20184;-79
2022/12/02 00:59:15;;;;;;;21.50;13.23;;;3.10;1.00;;;;;;5077863;28;20195;-76
2022/12/02 01:01:43;;;;;;;23.80;13.80;;;3.00;1.00;;;;;;5074080;28;20585;-78
2022/12/02 01:04:11;;;;;;;22.90;13.00;;;3.00;1.00;;;;;;5074253;28;20206;-75
2022/12/02 01:06:38;;;;;;;23.27;13.57;;;3.00;1.00;;;;;;5073909;28;20647;-75
2022/12/02 01:09:05;;;;;;;23.27;13.57;;;3.00;1.00;;;;;;5074117;28;20192;-79
2022/12/02 01:11:32;;;;;;;26.60;14.23;;;3.00;1.00;;;;;;5073860;28;20194;-76
2022/12/02 01:14:01;;;;;;;25.30;14.43;;;3.00;1.00;;;;;;5073658;28;20627;-76
2022/12/02 01:16:28;;;;;;;24.53;14.30;;;3.00;1.00;;;;;;5073937;28;20203;-80
2022/12/02 01:18:56;;;;;;;24.43;13.97;;;3.00;1.00;;;;;;5079181;28;20191;-79
2022/12/02 01:21:23;;;;;;;22.93;13.00;;;3.00;1.00;;;;;;5081663;28;20677;-75
2022/12/02 01:23:50;;;;;;;25.10;14.17;;;3.00;1.00;;;;;;5073833;28;20253;-75
2022/12/02 01:26:17;;;;;;;25.07;13.27;;;3.00;1.00;;;;;;5073663;28;20639;-75
2022/12/02 01:28:44;;;;;;;25.87;14.23;;;3.00;1.00;;;;;;5073629;28;20245;-75
2022/12/02 01:31:13;;;;;;;24.77;14.23;;;3.00;1.00;;;;;;5080561;28;20196;-75
2022/12/02 01:33:40;;;;;;;24.23;13.33;;;3.00;1.00;;;;;;5078326;28;20657;-79
2022/12/02 01:36:08;;;;;;;25.37;14.10;;;3.00;1.00;;;;;;5077039;28;20199;-75
2022/12/02 01:38:35;;;;;;;26.33;14.30;;;3.10;1.00;;;;;;5083448;28;20242;-76
2022/12/02 01:41:02;;;;;;;24.40;14.00;;;3.00;1.00;;;;;;5073271;28;20206;-76
2022/12/02 01:43:30;;;;;;;26.00;13.77;;;3.00;1.00;;;;;;5072953;28;20192;-75
2022/12/02 01:45:57;;;;;;;26.90;13.50;;;3.00;1.00;;;;;;5074599;28;20321;-76
2022/12/02 01:48:26;;;;;;;25.43;14.00;;;3.00;1.00;;;;;;5086467;28;20198;-75
2022/12/02 01:50:53;;;;;;;25.00;13.40;;;3.00;1.00;;;;;;5073001;28;20275;-76
2022/12/02 01:53:20;;;;;;;23.67;13.13;;;3.00;1.00;;;;;;5072527;28;20542;-76
2022/12/02 01:55:47;;;;;;;23.17;13.13;;;3.00;1.00;;;;;;5072789;28;20192;-75
2022/12/02 01:58:15;;;;;;;24.67;13.37;;;3.10;1.00;;;;;;5072686;28;20704;-76
2022/12/02 02:00:42;;;;;;;24.27;13.60;;;3.10;1.00;;;;;;5072627;28;20196;-77
2022/12/02 02:03:09;;;;;;;23.10;13.23;;;3.00;1.00;;;;;;5072978;28;20541;-78
2022/12/02 02:05:38;;;;;;;28.03;13.57;;;3.10;1.00;;;;;;5088301;28;20194;-76
2022/12/02 02:08:07;;;;;;;24.47;14.37;;;3.00;1.00;;;;;;5077820;28;20666;-76
2022/12/02 02:10:36;;;;;;;23.23;13.63;;;3.00;1.00;;;;;;5073008;28;20196;-76
2022/12/02 02:13:03;;;;;;;23.07;12.50;;;3.00;1.00;;;;;;5072966;28;20642;-75
2022/12/02 02:15:30;;;;;;;22.93;13.17;;;3.00;1.00;;;;;;5072532;28;20221;-78
2022/12/02 02:17:59;;;;;;;23.87;12.87;;;3.00;1.00;;;;;;5083462;28;20252;-76
2022/12/02 02:20:27;;;;;;;23.23;13.27;;;3.00;1.00;;;;;;5076756;28;20195;-76
2022/12/02 02:23:01;;;;;;;23.07;12.77;;;3.00;1.00;;;;;;5081338;28;20249;-76
2022/12/02 02:25:30;;;;;;;23.93;12.93;;;3.00;1.00;;;;;;5073661;28;20240;-76
2022/12/02 02:27:59;;;;;;;20.13;11.03;;;3.00;1.00;;;;;;5072788;28;20249;-78
2022/12/02 02:30:28;;;;;;;21.37;11.83;;;3.00;1.00;;;;;;5073932;28;20195;-77
2022/12/02 02:32:56;;;;;;;18.90;10.50;;;3.00;1.00;;;;;;5072329;28;20184;-76
2022/12/02 02:35:23;;;;;;;20.57;12.03;;;3.00;1.00;;;;;;5072150;28;20230;-77
2022/12/02 02:37:52;;;;;;;20.53;11.77;;;3.00;1.00;;;;;;5086305;28;20200;-76
2022/12/02 02:40:22;;;;;;;21.87;12.40;;;3.00;1.00;;;;;;5072474;28;20206;-79
2022/12/02 02:42:53;;;;;;;21.40;12.40;;;3.00;1.00;;;;;;5071895;28;20612;-79
2022/12/02 02:45:22;;;;;;;21.60;11.57;;;3.00;1.00;;;;;;5072246;28;20660;-78
2022/12/02 02:47:50;;;;;;;17.77;11.17;;;3.00;1.00;;;;;;5072430;28;20249;-78
2022/12/02 02:50:18;;;;;;;18.73;10.40;;;3.00;1.00;;;;;;5071757;28;20253;-80
2022/12/02 02:52:45;;;;;;;18.80;11.60;;;3.00;1.00;;;;;;5076072;28;20197;-76
2022/12/02 02:55:18;;;;;;;19.07;11.43;;;3.10;1.00;;;;;;5090968;28;20276;-78
2022/12/02 02:57:46;;;;;;;22.17;12.40;;;3.10;1.00;;;;;;5091950;28;20563;-76
2022/12/02 03:00:16;;;;;;;18.77;10.93;;;3.10;1.00;;;;;;5080791;28;20199;-76
2022/12/02 03:02:46;;;;;;;21.53;11.73;;;3.20;1.00;;;;;;5081813;28;20199;-76
2022/12/02 03:05:13;;;;;;;20.43;11.83;;;3.10;1.00;;;;;;5074751;28;20707;-80
2022/12/02 03:07:41;;;;;;;22.00;11.43;;;3.10;1.00;;;;;;5072009;28;20271;-78
2022/12/02 03:10:10;;;;;;;20.57;11.27;;;3.10;1.00;;;;;;5075410;28;20206;-76
2022/12/02 03:12:37;;;;;;;19.73;11.43;;;3.10;1.00;;;;;;5091767;28;20264;-79
2022/12/02 03:15:06;;;;;;;22.93;12.57;;;3.10;1.00;;;;;;5078068;28;20619;-76
2022/12/02 03:17:35;;;;;;;20.47;11.47;;;3.10;1.00;;;;;;5071717;28;20244;-75
2022/12/02 03:20:02;;;;;;;18.60;10.80;;;3.10;1.00;;;;;;5071955;28;20202;-76
2022/12/02 03:22:30;;;;;;;21.63;11.80;;;3.00;1.00;;;;;;5072000;28;20191;-78
2022/12/02 03:24:57;;;;;;;21.07;11.50;;;3.10;1.00;;;;;;5078881;28;20222;-76
2022/12/02 03:27:24;;;;;;;18.10;10.50;;;3.10;1.00;;;;;;5074232;28;20240;-76
2022/12/02 03:29:52;;;;;;;20.83;11.27;;;3.10;1.00;;;;;;5082776;28;20572;-76
2022/12/02 03:32:19;;;;;;;19.00;11.50;;;3.10;1.00;;;;;;5071742;28;20196;-76
2022/12/02 03:34:48;;;;;;;19.53;11.93;;;3.00;1.00;;;;;;5071427;28;20212;-76
2022/12/02 03:37:15;;;;;;;19.47;11.57;;;3.00;1.00;;;;;;5075843;28;20202;-78
2022/12/02 03:39:42;;;;;;;21.53;11.90;;;3.00;1.00;;;;;;5071726;28;20248;-76
2022/12/02 03:42:09;;;;;;;21.57;11.27;;;3.00;1.00;;;;;;5071584;28;20192;-76
2022/12/02 03:44:36;;;;;;;20.00;11.60;;;3.00;1.00;;;;;;5071528;28;20238;-76
2022/12/02 03:47:04;;;;;;;20.97;12.07;;;3.00;1.00;;;;;;5071635;28;20195;-77
2022/12/02 03:49:33;;;;;;;19.43;11.53;;;3.00;1.00;;;;;;5074696;28;20203;-77
2022/12/02 03:52:02;;;;;;;20.57;12.40;;;3.00;1.00;;;;;;5082251;28;20194;-76
2022/12/02 03:54:29;;;;;;;20.27;11.67;;;2.90;1.00;;;;;;5071636;28;20282;-75
2022/12/02 03:56:56;;;;;;;20.17;11.73;;;2.90;1.00;;;;;;5071687;28;20191;-76
2022/12/02 03:59:26;;;;;;;20.83;11.50;;;2.90;1.00;;;;;;5083487;28;20199;-78
2022/12/02 04:01:53;;;;;;;21.17;12.27;;;2.90;1.00;;;;;;5086013;28;20190;-76
2022/12/02 04:04:21;;;;;;;19.93;11.40;;;2.90;1.00;;;;;;5079706;28;20203;-76
2022/12/02 04:06:48;;;;;;;21.33;11.80;;;2.90;1.00;;;;;;5082409;28;20553;-77
2022/12/02 04:09:16;;;;;;;20.43;11.73;;;3.00;1.00;;;;;;5071472;28;20192;-76
2022/12/02 04:11:43;;;;;;;23.50;12.60;;;2.90;1.00;;;;;;5085654;28;20198;-76
2022/12/02 04:14:10;;;;;;;22.63;12.10;;;2.90;1.00;;;;;;5081678;28;20243;-76
2022/12/02 04:16:37;;;;;;;20.83;12.33;;;2.90;1.00;;;;;;5079723;28;20530;-76
2022/12/02 04:19:04;;;;;;;22.23;12.50;;;2.90;1.00;;;;;;5076493;28;20587;-76
2022/12/02 04:21:31;;;;;;;22.30;12.90;;;2.90;1.00;;;;;;5086280;28;20641;-80
2022/12/02 04:23:58;;;;;;;20.23;11.77;;;2.90;1.00;;;;;;5077660;28;20556;-80
2022/12/02 04:26:27;;;;;;;20.83;12.50;;;2.90;1.00;;;;;;5074575;28;20196;-77
2022/12/02 04:28:54;;;;;;;22.20;13.00;;;2.90;1.00;;;;;;5075296;28;20196;-80
2022/12/02 04:31:21;;;;;;;24.37;12.90;;;2.90;1.00;;;;;;5091009;28;20702;-77
2022/12/02 04:33:48;;;;;;;20.57;11.97;;;2.90;1.00;;;;;;5080842;28;20203;-75
2022/12/02 04:36:15;;;;;;;21.77;12.67;;;2.90;1.00;;;;;;5074797;28;20287;-75
2022/12/02 04:38:42;;;;;;;21.73;12.77;;;2.90;1.00;;;;;;5074299;28;20224;-79
2022/12/02 04:41:10;;;;;;;21.43;11.80;;;2.90;1.00;;;;;;5074555;28;20224;-78
2022/12/02 04:43:38;;;;;;;24.10;13.57;;;2.90;1.00;;;;;;5074193;28;20192;-79
2022/12/02 04:46:13;;;;;;;21.63;12.50;;;2.90;1.00;;;;;;5083971;28;20178;-79
2022/12/02 04:48:40;;;;;;;22.73;12.43;;;2.90;1.00;;;;;;5107289;28;20196;-79
2022/12/02 04:51:07;;;;;;;24.83;12.73;;;2.90;3.70;;;;;;5091690;28;20229;-77
2022/12/02 04:53:34;;;;;;;24.57;13.60;;;2.90;18.40;;;;;;5091708;28;20199;-76
2022/12/02 04:56:02;;;;;;;22.50;12.87;;;2.90;29.50;;;;;;5074124;28;20212;-77
2022/12/02 04:58:29;;;;;;;25.27;12.87;;;2.90;47.30;;;;;;5073997;28;20271;-78
2022/12/02 05:00:57;;;;;;;25.40;13.60;;;2.80;74.10;;;;;;5080339;28;20560;-78
2022/12/02 05:03:24;;;;;;;23.20;13.47;;;2.80;99.90;;;;;;5089574;28;20200;-76
2022/12/02 05:05:51;;;;;;;24.50;12.80;;;2.90;99.90;;;;;;5093883;28;20194;-79
2022/12/02 05:08:18;;;;;;;22.87;12.03;;;2.80;99.90;;;;;;5088110;28;20191;-77
2022/12/02 05:10:45;;;;;;;25.40;13.50;;;2.80;99.90;;;;;;5091633;28;20203;-76
2022/12/02 05:13:12;;;;;;;25.50;13.47;;;2.80;99.90;;;;;;5091957;28;20255;-76
2022/12/02 05:15:40;;;;;;;24.80;13.10;;;2.90;99.90;;;;;;5092115;28;20215;-76
2022/12/02 05:18:08;;;;;;;24.90;13.33;;;2.80;99.90;;;;;;5088633;28;20596;-76
2022/12/02 05:20:35;;;;;;;28.07;13.77;;;2.90;99.90;;;;;;5088029;28;20223;-80
2022/12/02 05:23:02;;;;;;;24.83;12.87;;;2.90;99.90;;;;;;5088743;28;20309;-76
2022/12/02 05:25:29;;;;;;;22.47;12.43;;;2.90;99.90;;;;;;5087912;28;20592;-76
2022/12/02 05:27:56;;;;;;;22.67;12.43;;;2.80;99.90;;;;;;5088550;28;20187;-77
2022/12/02 05:30:23;;;;;;;24.33;13.37;;;2.80;99.90;;;;;;5085941;28;20225;-77
2022/12/02 05:32:51;;;;;;;24.77;12.80;;;2.90;99.90;;;;;;5086031;28;20266;-79
2022/12/02 05:35:19;;;;;;;25.97;13.50;;;2.80;99.90;;;;;;5087289;28;20629;-76
2022/12/02 05:37:46;;;;;;;25.23;12.77;;;2.80;99.90;;;;;;5084691;28;20240;-78
2022/12/02 05:40:14;;;;;;;22.43;11.60;;;2.80;99.90;;;;;;5088550;28;20247;-76
2022/12/02 05:42:42;;;;;;;28.57;13.03;;;2.80;99.90;;;;;;5082800;28;20593;-77
2022/12/02 05:45:15;;;;;;;25.40;13.60;;;2.80;99.90;;;;;;5092983;28;20187;-78
2022/12/02 05:47:44;;;;;;;23.00;12.50;;;2.80;99.90;;;;;;5083414;28;20553;-79
2022/12/02 05:50:14;;;;;;;24.17;13.10;;;2.90;99.90;;;;;;5087839;28;20711;-78
2022/12/02 05:52:43;;;;;;;28.10;13.70;;;2.80;99.90;;;;;;5084245;28;20188;-78
2022/12/02 05:55:14;;;;;;;27.73;13.53;;;2.90;99.90;;;;;;5092369;28;20215;-80
2022/12/02 05:57:41;;;;;;;26.23;12.83;;;2.80;99.90;;;;;;5085047;28;20202;-77
2022/12/02 06:00:17;;;;;;;26.13;13.53;;;2.80;99.90;;;;;;5084291;28;20183;-78
2022/12/02 06:02:46;;;;;;;25.87;14.07;;;2.80;99.90;;;;;;5088912;28;20198;-80
2022/12/02 06:05:19;;;;;;;26.50;13.57;;;2.90;99.90;;;;;;5086528;28;20199;-76
2022/12/02 06:07:51;;;;;;;26.83;13.43;;;2.90;99.90;;;;;;5080491;28;20282;-77
2022/12/02 06:10:30;;;;;;;27.33;13.20;;;2.90;99.90;;;;;;5088979;28;20558;-78
2022/12/02 06:13:00;;;;;;;25.37;13.13;;;2.90;99.90;;;;;;5087533;28;20201;-80
2022/12/02 06:15:34;;;;;;;24.77;13.00;;;2.80;99.90;;;;;;5069554;28;20220;-76
2022/12/02 06:18:01;;;;;;;24.00;12.47;;;2.80;99.90;;;;;;5070941;28;20196;-79
2022/12/02 06:20:33;;;;;;;24.53;12.70;;;2.80;99.90;;;;;;5071939;28;20192;-79
2022/12/02 06:23:03;;;;;;;27.00;13.53;;;2.80;99.90;;;;;;5072782;28;20211;-80
2022/12/02 06:25:32;;;;;;;23.83;11.67;;;2.80;99.90;;;;;;5072184;28;20195;-76
2022/12/02 06:28:12;;;;;;;30.17;14.80;;;2.90;99.90;;;;;;5072347;28;20213;-76
2022/12/02 06:30:40;;;;;;;33.13;15.77;;;2.80;99.90;;;;;;5072388;28;20194;-77
2022/12/02 06:33:19;;;;;;;32.03;14.33;;;2.80;99.90;;;;;;5083374;28;20201;-77
2022/12/02 06:35:46;;;;;;;30.33;13.73;;;2.80;99.90;;;;;;5072913;28;20203;-82
2022/12/02 06:38:21;;;;;;;26.47;13.37;;;2.80;99.90;;;;;;5072311;28;20203;-77
2022/12/02 06:40:48;;;;;;;30.00;14.33;;;2.80;99.90;;;;;;5072163;28;20592;-80
2022/12/02 06:43:23;;;;;;;28.87;14.47;;;2.90;99.90;;;;;;5072088;28;20594;-78
2022/12/02 06:45:50;;;;;;;27.03;14.10;;;2.90;99.90;;;;;;5072043;28;20183;-82
2022/12/02 06:48:28;;;;;;;26.30;14.20;;;2.90;99.90;;;;;;5072082;28;20189;-80
2022/12/02 06:51:00;;;;;;;32.27;15.20;;;2.90;99.90;;;;;;5071650;28;20697;-77
2022/12/02 06:53:34;;;;;;;28.43;15.40;;;2.90;99.90;;;;;;5082490;28;20187;-80
2022/12/02 06:56:06;;;;;;;27.40;13.90;;;2.90;99.90;;;;;;5073988;28;20753;-76
2022/12/02 06:58:41;;;;;;;29.87;14.73;;;2.90;99.90;;;;;;5071804;28;20192;-77
2022/12/02 07:01:22;;;;;;;28.60;14.47;;;2.90;99.90;;;;;;5075463;28;20189;-77
2022/12/02 07:04:06;;;;;;;29.27;14.07;;;3.00;99.90;;;;;;5071971;28;20190;-78
2022/12/02 07:06:35;;;;;;;29.33;15.27;;;3.00;99.90;;;;;;5071874;28;20660;-77
2022/12/02 07:09:06;;;;;;;31.13;15.43;;;3.00;99.90;;;;;;5071565;28;20241;-77
2022/12/02 07:11:52;;;;;;;32.23;15.53;;;2.90;99.90;;;;;;5071796;28;20220;-77
2022/12/02 07:14:40;;;;;;;34.17;15.40;;;2.90;99.90;;;;;;5071605;28;20548;-78
2022/12/02 07:17:19;;;;;;;32.70;14.63;;;2.90;1.00;;;;;;5072033;28;20693;-77
2022/12/02 07:19:48;;;;;;;32.47;16.53;;;2.90;1.00;;;;;;5081429;28;20218;-75
2022/12/02 07:22:16;;;;;;;30.73;15.83;;;2.90;1.00;;;;;;5087900;28;20245;-76
2022/12/02 07:24:52;;;;;;;35.93;16.00;;;2.90;1.00;;;;;;5071917;28;20242;-79
2022/12/02 07:27:24;;;;;;;31.47;15.53;;;2.80;1.00;;;;;;5071769;28;20581;-80
2022/12/02 07:29:52;;;;;;;33.50;15.33;;;2.90;1.00;;;;;;5071747;28;20199;-76
2022/12/02 07:32:19;;;;;;;33.47;16.10;;;2.90;1.00;;;;;;5071490;28;20256;-75
2022/12/02 07:34:46;;;;;;;29.17;15.43;;;2.90;1.00;;;;;;5071510;28;20267;-76
2022/12/02 07:37:16;;;;;;;35.77;17.17;;;2.90;1.00;;;;;;5072626;28;20273;-77
2022/12/02 07:39:43;;;;;;;31.93;15.50;;;2.90;1.00;;;;;;5095810;28;20227;-77
2022/12/02 07:42:13;;;;;;;31.80;16.17;;;2.90;1.00;;;;;;5080195;28;20245;-77
2022/12/02 07:44:40;;;;;;;34.37;17.37;;;2.90;1.00;;;;;;5071461;28;20201;-79
2022/12/02 07:47:08;;;;;;;33.97;17.00;;;2.90;1.00;;;;;;5072078;28;20242;-77
2022/12/02 07:49:35;;;;;;;31.87;14.93;;;2.90;1.00;;;;;;5075131;28;20212;-77
2022/12/02 07:52:01;;;;;;;33.40;16.27;;;2.90;1.00;;;;;;5075020;28;20199;-77
2022/12/02 07:54:28;;;;;;;31.87;16.53;;;2.90;1.00;;;;;;5074725;28;20714;-76
2022/12/02 07:56:55;;;;;;;31.73;15.33;;;2.90;1.00;;;;;;5074896;28;20614;-80
2022/12/02 07:59:24;;;;;;;36.40;18.50;;;2.90;1.00;;;;;;5075226;28;20192;-77
2022/12/02 08:01:51;;;;;;;34.67;17.43;;;2.90;1.00;;;;;;5080629;28;20247;-76
2022/12/02 08:04:21;;;;;;;32.20;16.00;;;2.90;99.90;;;;;;5086584;28;20229;-81
2022/12/02 08:06:48;;;;;;;31.77;16.37;;;2.80;99.90;;;;;;5089138;28;20201;-75
2022/12/02 08:09:15;;;;;;;33.40;15.80;;;2.80;99.90;;;;;;5083304;28;20205;-79
2022/12/02 08:11:42;;;;;;;36.20;16.40;;;2.80;99.90;;;;;;5084137;28;20240;-76
2022/12/02 08:14:09;;;;;;;34.10;17.97;;;2.70;99.90;;;;;;5092097;28;20196;-79
2022/12/02 08:16:37;;;;;;;33.47;17.77;;;2.70;88.70;;;;;;5074832;28;20557;-75
2022/12/02 08:19:04;;;;;;;36.77;16.83;;;2.70;76.00;;;;;;5088930;28;20200;-77
2022/12/02 08:21:31;;;;;;;34.20;16.80;;;2.70;38.40;;;;;;5078590;28;20196;-75
2022/12/02 08:23:58;;;;;;;34.87;17.60;;;2.70;20.10;;;;;;5090515;28;20309;-76
2022/12/02 08:26:25;;;;;;;35.40;15.90;;;2.70;1.00;;;;;;5081353;28;20199;-75
2022/12/02 08:28:52;;;;;;;35.40;16.77;;;2.70;1.00;;;;;;5074518;28;20265;-76
2022/12/02 08:31:19;;;;;;;35.10;18.17;;;2.70;1.00;;;;;;5074618;28;20252;-76
2022/12/02 08:33:48;;;;;;;39.80;19.40;;;2.70;1.00;;;;;;5074307;28;20244;-76
2022/12/02 08:36:15;;;;;;;35.93;16.03;;;2.70;1.00;;;;;;5074681;28;20637;-76
2022/12/02 08:38:42;;;;;;;39.53;17.93;;;2.60;1.00;;;;;;5074311;28;20281;-78
2022/12/02 08:41:09;;;;;;;36.60;17.17;;;2.60;1.00;;;;;;5074584;28;20210;-80
2022/12/02 08:43:37;;;;;;;37.90;17.33;;;2.50;1.00;;;;;;5074186;28;20256;-76
2022/12/02 08:46:05;;;;;;;41.73;20.53;;;2.50;1.00;;;;;;5073988;28;20607;-78
2022/12/02 08:48:32;;;;;;;40.53;18.53;;;2.40;1.00;;;;;;5074329;28;20552;-75
2022/12/02 08:51:01;;;;;;;35.37;18.43;;;2.40;1.00;;;;;;5073536;28;20772;-75
2022/12/02 08:53:28;;;;;;;31.33;14.97;;;2.30;1.00;;;;;;5074103;28;20206;-75
2022/12/02 08:55:55;;;;;;;36.80;17.87;;;2.30;1.00;;;;;;5073890;28;20237;-79
2022/12/02 08:58:22;;;;;;;38.57;19.70;;;2.20;1.00;;;;;;5073937;28;20203;-75
2022/12/02 09:00:50;;;;;;;36.77;16.00;;;2.20;1.00;;;;;;5074125;28;20209;-79
2022/12/02 09:03:17;;;;;;;34.27;15.37;;;2.10;1.00;;;;;;5093484;28;20193;-80
2022/12/02 09:05:44;;;;;;;37.33;17.27;;;2.10;1.00;;;;;;5093924;28;20241;-76
2022/12/02 09:08:12;;;;;;;36.83;16.83;;;2.10;1.00;;;;;;5074141;28;20201;-78
2022/12/02 09:10:39;;;;;;;37.87;17.17;;;2.10;1.00;;;;;;5073484;28;20558;-77
2022/12/02 09:13:06;;;;;;;38.00;18.97;;;2.10;1.00;;;;;;5073765;28;20243;-76
2022/12/02 09:15:33;;;;;;;39.03;17.67;;;2.10;1.00;;;;;;5088873;28;20204;-81
2022/12/02 09:18:00;;;;;;;34.57;15.83;;;2.00;99.90;;;;;;5083615;28;20712;-77
2022/12/02 09:20:27;;;;;;;33.80;17.20;;;2.00;99.90;;;;;;5073613;28;20263;-76
2022/12/02 09:22:55;;;;;;;33.60;13.70;;;2.00;99.90;;;;;;5082062;28;20227;-76
2022/12/02 09:25:23;;;;;;;35.30;16.50;;;1.90;99.90;;;;;;5078628;28;20205;-77
2022/12/02 09:27:50;;;;;;;41.27;18.20;;;1.90;1.00;;;;;;5073544;28;20191;-81
2022/12/02 09:30:18;;;;;;;36.47;17.20;;;1.90;99.90;;;;;;5073734;28;20198;-81
2022/12/02 09:32:45;;;;;;;37.37;16.90;;;1.90;99.90;;;;;;5073181;28;20194;-76
2022/12/02 09:35:12;;;;;;;35.00;17.83;;;2.00;1.00;;;;;;5073246;28;20195;-76
2022/12/02 09:37:39;;;;;;;42.30;18.77;;;2.00;99.90;;;;;;5072916;28;20705;-80
2022/12/02 09:40:07;;;;;;;37.97;18.13;;;2.00;99.90;;;;;;5073284;28;20194;-76
2022/12/02 09:42:36;;;;;;;29.87;15.07;;;2.10;99.90;;;;;;5073109;28;20204;-76
2022/12/02 09:45:04;;;;;;;37.23;15.80;;;2.10;99.90;;;;;;5073357;28;20961;-76
2022/12/02 09:47:31;;;;;;;38.07;19.00;;;2.10;99.90;;;;;;5073000;28;20197;-77
2022/12/02 09:49:58;;;;;;;35.33;17.23;;;2.20;99.90;;;;;;5075419;28;20343;-78
2022/12/02 09:52:28;;;;;;;37.77;18.20;;;2.20;99.90;;;;;;5093127;28;20187;-79
2022/12/02 09:54:57;;;;;;;40.03;19.97;;;2.10;99.90;;;;;;5084068;28;20243;-75
2022/12/02 09:57:28;;;;;;;38.13;18.17;;;2.10;99.90;;;;;;5072303;28;20268;-76
2022/12/02 09:59:57;;;;;;;42.10;19.30;;;2.10;99.90;;;;;;5072892;28;20189;-75
2022/12/02 10:02:29;;;;;;;43.77;19.63;;;2.10;99.90;;;;;;5083030;28;20203;-81
2022/12/02 10:05:02;;;;;;;43.23;17.93;;;2.10;99.90;;;;;;5075402;28;20201;-76
2022/12/02 10:07:29;;;;;;;43.10;20.27;;;2.10;99.90;;;;;;5073768;28;20189;-78
2022/12/02 10:09:57;;;;;;;37.80;18.30;;;2.20;99.90;;;;;;5072178;28;20202;-82
2022/12/02 10:12:24;;;;;;;42.03;18.97;;;2.20;99.90;;;;;;5086676;28;20209;-75
2022/12/02 10:14:51;;;;;;;36.90;18.10;;;2.20;99.90;;;;;;5092752;28;20189;-75
2022/12/02 10:17:21;;;;;;;37.57;17.33;;;2.20;99.90;;;;;;5077850;28;20272;-76
2022/12/02 10:19:49;;;;;;;36.80;18.90;;;2.20;99.90;;;;;;5073111;28;20197;-75
2022/12/02 10:22:18;;;;;;;39.27;17.77;;;2.20;99.90;;;;;;5072193;28;20230;-78
2022/12/02 10:24:48;;;;;;;33.97;15.93;;;2.20;99.90;;;;;;5089635;28;20221;-77
2022/12/02 10:27:25;;;;;;;40.63;18.93;;;2.20;99.90;;;;;;5095026;28;20210;-76
2022/12/02 10:29:52;;;;;;;41.50;19.53;;;2.20;99.90;;;;;;5075841;28;20198;-74
2022/12/02 10:32:23;;;;;;;38.83;17.20;;;2.20;99.90;;;;;;5089736;28;20197;-78
2022/12/02 10:35:04;;;;;;;40.20;16.83;;;2.20;99.90;;;;;;5083925;28;20210;-75
2022/12/02 10:37:34;;;;;;;41.63;18.30;;;2.10;99.90;;;;;;5094979;28;20300;-75
2022/12/02 10:40:17;;;;;;;40.60;19.20;;;2.10;99.90;;;;;;5092538;28;20201;-76
2022/12/02 10:42:44;;;;;;;37.27;17.93;;;2.10;99.90;;;;;;5098228;28;20228;-75
2022/12/02 10:45:19;;;;;;;40.30;19.37;;;2.20;99.90;;;;;;5095148;28;20192;-80
2022/12/02 10:47:48;;;;;;;38.97;17.20;;;2.10;99.90;;;;;;5092181;28;20420;-79
2022/12/02 10:50:20;;;;;;;41.80;18.97;;;2.10;99.90;;;;;;5079125;28;20233;-78
2022/12/02 10:52:50;;;;;;;38.47;17.40;;;2.10;99.90;;;;;;5094656;28;20200;-77
2022/12/02 10:55:19;;;;;;;37.13;18.13;;;2.10;99.90;;;;;;5094932;28;20204;-79
2022/12/02 10:57:47;;;;;;;32.43;16.17;;;2.10;99.90;;;;;;5097252;28;20205;-75
2022/12/02 11:00:17;;;;;;;41.27;18.50;;;2.00;99.90;;;;;;5083617;28;20721;-77
2022/12/02 11:02:48;;;;;;;31.73;15.53;;;2.00;99.90;;;;;;5094859;28;20205;-76
2022/12/02 11:05:17;;;;;;;38.70;19.20;;;1.90;99.90;;;;;;5098844;28;20213;-75
2022/12/02 11:07:56;;;;;;;37.13;18.10;;;1.90;99.90;;;;;;5091062;28;20607;-79
2022/12/02 11:10:25;;;;;;;40.23;19.23;;;1.90;99.90;;;;;;5090999;28;20278;-80
2022/12/02 11:13:15;;;;;;;37.60;18.33;;;1.90;99.90;;;;;;5087035;28;20193;-77
2022/12/02 11:15:44;;;;;;;30.97;15.83;;;1.90;99.90;;;;;;5072338;28;20196;-76
2022/12/02 11:18:58;;;;;;;39.23;17.80;;;1.90;99.90;;;;;;5085022;28;20213;-76
2022/12/02 11:21:39;;;;;;;43.60;19.73;;;1.90;99.90;;;;;;5098376;28;20178;-76
2022/12/02 11:24:34;;;;;;;36.50;17.97;;;1.80;99.90;;;;;;5082549;28;20196;-76
2022/12/02 11:27:11;;;;;;;39.07;18.20;;;1.80;99.90;;;;;;5074558;28;20193;-77
2022/12/02 11:29:41;;;;;;;37.77;17.77;;;1.90;99.90;;;;;;5081933;28;20201;-75
2022/12/02 11:32:19;;;;;;;37.30;18.63;;;1.90;99.90;;;;;;5094119;28;20294;-73
2022/12/02 11:34:50;;;;;;;36.77;18.93;;;1.90;99.90;;;;;;5098096;28;20179;-75
2022/12/02 11:37:49;;;;;;;37.00;18.77;;;2.00;99.90;;;;;;5094660;28;20217;-74
2022/12/02 11:40:58;;;;;;;35.30;17.07;;;2.00;99.90;;;;;;5072693;28;20243;-75
2022/12/02 11:43:55;;;;;;;39.80;17.33;;;2.10;99.90;;;;;;5087551;28;20193;-75
2022/12/02 11:46:37;;;;;;;38.80;20.10;;;2.10;99.90;;;;;;5083573;28;20195;-76
2022/12/02 11:49:26;;;;;;;39.57;19.03;;;2.10;87.00;;;;;;5085152;28;20245;-77
2022/12/02 11:52:16;;;;;;;34.33;16.93;;;2.00;99.90;;;;;;5046194;28;1262275;-79
2022/12/02 11:54:47;;;;;;;32.43;15.67;;;2.00;99.90;;;;;;5099858;28;20232;-76
2022/12/02 11:57:20;;;;;;;36.13;19.23;;;2.00;99.90;;;;;;5092685;28;21562;-80
2022/12/02 11:59:47;;;;;;;37.23;18.73;;;1.90;99.90;;;;;;5085418;28;20196;-75
2022/12/02 12:02:16;;;;;;;40.00;19.97;;;1.90;99.90;;;;;;5085650;28;20192;-77
2022/12/02 12:04:43;;;;;;;35.13;18.53;;;1.90;99.90;;;;;;5093969;28;20224;-77
2022/12/02 12:07:13;;;;;;;39.30;19.43;;;1.90;99.90;;;;;;5084701;28;20259;-75
2022/12/02 12:09:40;;;;;;;35.97;19.00;;;1.90;99.90;;;;;;5074915;28;20233;-76
2022/12/02 12:12:12;;;;;;;34.40;17.50;;;2.00;99.90;;;;;;5085959;28;20639;-75
2022/12/02 12:14:59;;;;;;;37.87;19.37;;;2.00;99.90;;;;;;5082238;28;20184;-75
2022/12/02 12:17:48;;;;;;;35.20;17.73;;;2.00;99.90;;;;;;5090133;28;20674;-75
2022/12/02 12:20:44;;;;;;;38.43;19.57;;;2.00;99.90;;;;;;5072972;28;20242;-75
2022/12/02 12:23:34;;;;;;;38.40;18.77;;;2.00;94.40;;;;;;5074445;28;20190;-76
2022/12/02 12:26:02;;;;;;;36.53;18.93;;;2.00;34.90;;;;;;5074490;28;20243;-75
2022/12/02 12:28:30;;;;;;;37.13;19.27;;;2.00;8.40;;;;;;5074554;28;20609;-75
2022/12/02 12:30:58;;;;;;;36.40;18.13;;;1.90;46.00;;;;;;5074393;28;20257;-75
2022/12/02 12:33:25;;;;;;;33.30;18.70;;;1.90;78.00;;;;;;5074217;28;20249;-75
2022/12/02 12:35:53;;;;;;;34.90;18.70;;;2.00;21.80;;;;;;5083331;28;20269;-77
2022/12/02 12:38:21;;;;;;;36.67;18.83;;;1.90;39.20;;;;;;5088303;28;20259;-82
2022/12/02 12:40:49;;;;;;;32.90;15.87;;;1.90;28.70;;;;;;5091378;28;20197;-78
2022/12/02 12:43:17;;;;;;;37.00;17.77;;;1.90;22.60;;;;;;5094261;28;20282;-80
2022/12/02 12:45:44;;;;;;;27.37;13.57;;;1.90;17.60;;;;;;5097952;28;20189;-82
2022/12/02 12:48:12;;;;;;;36.80;19.50;;;1.90;1.00;;;;;;5094210;28;20217;-79
2022/12/02 12:50:39;;;;;;;34.33;17.30;;;1.90;1.00;;;;;;5085694;28;20312;-77
2022/12/02 12:53:06;;;;;;;30.43;15.63;;;1.90;1.00;;;;;;5074089;28;20196;-80
2022/12/02 12:55:33;;;;;;;27.60;14.43;;;1.90;1.00;;;;;;5074399;28;20601;-78
2022/12/02 12:58:01;;;;;;;33.43;17.30;;;1.90;1.00;;;;;;5073666;28;20630;-81
2022/12/02 13:00:29;;;;;;;35.87;16.70;;;1.90;1.00;;;;;;5092207;28;20544;-80